Sand Key, FL current weather conditions

sailwx.info

Wind from 120 at 8 knots gusting 10

Air temperature 27.5° C
Dewpoint 20.6° C

Last reported at 2016-May-29 03:50 UTC.
Time now 2016-May-29 05:51 UTC

Location: N 24°28' W 081°53'.
View on Google Maps.

See reports from other nearby stations

  
Tides and Currents Weather Stations Pressure Air Temp Water Temp Dewpoint Dewpoint Depression Visibility Wind Speed Wind Dir Waves Ship Positions
date/time (UTC)wind fromknots sea level pressurealtimeterstation pressurevisibilityair tempwater tempwave heightnotes
2016-May-29 03:50 120 8 gusting 10 27.5
2016-May-29 02:50 110 6 gusting 9 27.4
2016-May-29 01:50 140 3 gusting 4 27.4
2016-May-29 00:50 130 3 gusting 4 27.4
2016-May-28 22:50 140 1 gusting 2 27.8
2016-May-28 21:50 080 2 gusting 3 27.9
2016-May-28 20:50 220 2 gusting 4 28.2
2016-May-28 19:50 27.3
2016-May-28 18:50 27.3
2016-May-28 17:50 120 7 gusting 8 27.1
2016-May-28 16:50 130 6 gusting 8 27.1
2016-May-28 15:50 110 7 gusting 8 27.1
2016-May-28 14:50 100 5 gusting 7 27.1
2016-May-28 13:50 100 5 gusting 7 27.1
2016-May-28 12:50 130 5 gusting 7 27.1
2016-May-28 11:50 140 7 gusting 9 26.9
2016-May-28 10:50 140 6 gusting 8 26.7
2016-May-28 09:50 140 8 gusting 10 26.7
2016-May-28 08:50 150 9 gusting 11 26.8
2016-May-28 07:50 140 10 gusting 12 26.7
2016-May-28 06:50 140 10 gusting 12 26.7
2016-May-28 05:50 130 9 gusting 12 26.7
2016-May-28 04:50 120 10 gusting 12 26.7
2016-May-28 03:50 130 11 gusting 13 26.9
2016-May-28 02:50 120 12 gusting 14 26.9
2016-May-28 01:50 120 12 gusting 14 27.0
2016-May-28 00:50 120 11 gusting 13 27.0
2016-May-27 22:50 100 10 gusting 12 27.1
2016-May-27 21:50 110 10 gusting 11 27.0
2016-May-27 20:50 110 11 gusting 13 26.9
2016-May-27 19:50 120 12 gusting 13 26.8
2016-May-27 18:50 140 11 gusting 20 26.8
2016-May-27 17:50 110 10 gusting 13 26.7
2016-May-27 16:50 110 12 gusting 15 26.8
2016-May-27 15:50 120 12 gusting 14 26.3
2016-May-27 14:50 110 14 gusting 16 26.6
2016-May-27 13:50 130 6 gusting 8 26.8
2016-May-27 12:50 140 8 gusting 10 26.8
2016-May-27 11:50 120 11 gusting 13 26.6
2016-May-27 10:50 130 10 gusting 12 26.5
2016-May-27 09:50 130 11 gusting 14 26.5
2016-May-27 08:50 140 6 gusting 7 26.5
2016-May-27 08:14 150 6 gusting 8 26.4
2016-May-27 08:09 140 7 gusting 9 26.3
2016-May-27 08:04 160 7 gusting 9 26.4
2016-May-27 07:59 160 8 gusting 9 26.3
2016-May-27 07:54 150 8 gusting 10 26.3
2016-May-27 06:50 130 9 gusting 11 26.4
2016-May-27 05:50 120 9 gusting 12 26.4